• vieta
  • image
  • image
  • image
mod_vvisit_countermod_vvisit_countermod_vvisit_countermod_vvisit_countermod_vvisit_countermod_vvisit_counter
mod_vvisit_counterŠiandien47
mod_vvisit_counterVakar917
mod_vvisit_counterŠią savaitę964
mod_vvisit_counterPraėjusią savaitę4931
mod_vvisit_counterŠį mėnesį17332
mod_vvisit_counterPraėjusį mėnesį26640
mod_vvisit_counterViso682330

Mes turime: 4 svečius, 1 bots online
Jūsų IP: 54.198.201.250
 , 
Šiandien: Birž 26, 2017

Šiandien

Pirmadienis, 26 Birželis 2017

Orų prognozė

Šiauliai °C
   

Orų prognozė aviacijai

[source: ADDS]
METAR
EYSA 252350Z AUTO 22008KT 9999NDV FEW014 12/11 Q1003 =
TAF
TAF EYSA 252300Z 2600/2609 24014KT 7000 SCT010 BKN020 TEMPO 2600/2606 BKN005 TEMPO 2606/2609 24024KT 3000 SHRA BKN005 BKN015CB =
SR / SS: 01:50 / 19:11 UTC (EYSA 2017-06-26)

Paieška

Lankytojai

Mes turime 5 svečius online

tic logo lt